Dudinka, Russia
Current Conditions -  °F | °C
As of 8:30 PM on Monday 22 Dec 2014 (Local Time) from USNN Reporting Station
Overcast Overcast  
Wind Chill: 20°   Ceiling: 1700
Heat Index: 30°   Visibility: 6mi
Dew Point: 23°   Wind: 13mph
Humidity: 75%   Direction: 220°SW
Pressure: 29.85"   Gusts: 20mph
Location:  69.41°N, 86.18°E
Report Text: USNN 221330Z 22006G09MPS 9999 OVC017 M01/M05 Q1011 NOSIG RMKQFE753 21410337
Loading
Personal Weather Stations






























Interactive Weather Map New forecast layout! Learn more

10-Day Weather Forecast

Advertisements
Track Severe Weather on mobile